Terminal Aerodrome Forecast
Issued by NWS

Home | Current Version | Previous Version | Text Only | Print | Product List | Glossary On
Versions: 1 2 3 4 5 6 7 8 9 10 11 12 13 14 15 16 17 18 19 20 21 22 23 24
530
FTUS43 KDLH 050541
TAFHIB
TAF
KHIB 050541Z 0506/0606 27005KT P6SM SCT015 OVC025
      TEMPO 0506/0509 3SM -FZDZ BR OVC012
     FM050900 26004KT 5SM BR OVC008
     FM051700 12006KT P6SM BKN015
     FM052200 12006KT 3SM BR VCSH OVC015
     FM060100 13009KT 2SM -SN BR OVC008=

USA.gov is the U.S. government's official web portal to all federal, state and local government web resources and services.